createdAt,value
2023-05-06T00:00:36.273Z,101153.16
2023-05-06T00:03:04.543Z,101159.94
2023-05-06T00:05:32.731Z,101162.50
2023-05-06T00:08:01.452Z,101163.63
2023-05-06T00:10:29.727Z,101167.75
2023-05-06T00:12:58.105Z,101170.88
2023-05-06T00:15:26.564Z,101174.69
2023-05-06T00:17:55.807Z,101177.66
2023-05-06T00:20:23.374Z,101167.22
2023-05-06T00:22:51.863Z,101169.34
2023-05-06T00:25:20.716Z,101165.88
2023-05-06T00:27:48.818Z,101153.66
2023-05-06T00:30:17.142Z,101151.91
2023-05-06T00:32:45.740Z,101148.91
2023-05-06T00:35:14.031Z,101131.50
2023-05-06T00:38:07.850Z,101126.03
2023-05-06T00:40:38.982Z,101119.59
2023-05-06T00:43:09.581Z,101109.44
2023-05-06T00:45:40.295Z,101101.97
2023-05-06T00:48:10.920Z,101101.47
2023-05-06T00:50:41.817Z,101097.13
2023-05-06T00:53:12.688Z,101094.06
2023-05-06T00:55:43.154Z,101096.81
2023-05-06T00:58:15.181Z,101095.06
2023-05-06T01:00:44.849Z,101089.94
2023-05-06T01:03:13.140Z,101083.91
2023-05-06T01:06:51.165Z,101077.03
2023-05-06T01:09:32.140Z,101069.34
2023-05-06T01:12:27.372Z,101073.94
2023-05-06T01:15:17.421Z,101068.72
2023-05-06T01:17:53.783Z,101070.03
2023-05-06T01:20:27.039Z,101062.13
2023-05-06T01:22:56.829Z,101066.28
2023-05-06T01:25:26.247Z,101062.69
2023-05-06T01:27:54.628Z,101070.47
2023-05-06T01:30:36.054Z,101067.78
2023-05-06T01:33:29.470Z,101058.81
2023-05-06T01:36:49.711Z,101067.16
2023-05-06T01:39:30.192Z,101070.59
2023-05-06T01:42:03.826Z,101065.28
2023-05-06T01:44:38.864Z,101065.16
2023-05-06T01:47:13.576Z,101062.09
2023-05-06T01:49:44.237Z,101066.91
2023-05-06T01:52:16.742Z,101058.88
2023-05-06T01:54:46.821Z,101059.28
2023-05-06T01:57:17.015Z,101055.13
2023-05-06T01:59:47.117Z,101055.13
2023-05-06T02:02:17.218Z,101061.78
2023-05-06T02:04:47.311Z,101063.31
2023-05-06T02:07:17.385Z,101075.09
2023-05-06T02:09:47.480Z,101079.81
2023-05-06T02:12:17.534Z,101081.47
2023-05-06T02:14:47.595Z,101078.03
2023-05-06T02:17:17.734Z,101076.63
2023-05-06T02:19:47.836Z,101066.59
2023-05-06T02:22:16.229Z,101072.81
2023-05-06T02:24:44.642Z,101073.34
2023-05-06T02:27:13.062Z,101071.91
2023-05-06T02:29:41.473Z,101062.97
2023-05-06T02:32:09.963Z,101070.47
2023-05-06T02:34:38.289Z,101068.06
2023-05-06T02:37:06.713Z,101066.03
2023-05-06T02:39:35.203Z,101073.88
2023-05-06T02:42:03.991Z,101079.06
2023-05-06T02:44:32.014Z,101077.59
2023-05-06T02:47:00.766Z,101079.75
2023-05-06T02:49:28.797Z,101079.38
2023-05-06T02:51:57.267Z,101071.09
2023-05-06T02:54:27.423Z,101065.84
2023-05-06T02:56:57.166Z,101068.41
2023-05-06T02:59:25.694Z,101068.53
2023-05-06T03:01:53.877Z,101065.84
2023-05-06T03:04:22.679Z,101062.88
2023-05-06T03:06:50.774Z,101060.63
2023-05-06T03:09:19.268Z,101061.81
2023-05-06T03:11:48.653Z,101066.72
2023-05-06T03:14:16.334Z,101062.09
2023-05-06T03:16:44.388Z,101061.06
2023-05-06T03:19:12.881Z,101058.41
2023-05-06T03:21:41.400Z,101058.28
2023-05-06T03:24:09.621Z,101058.69
2023-05-06T03:26:38.148Z,101061.56
2023-05-06T03:29:06.428Z,101060.56
2023-05-06T03:31:34.912Z,101051.09
2023-05-06T03:34:03.162Z,101051.72
2023-05-06T03:36:31.952Z,101051.09
2023-05-06T03:39:00.005Z,101051.75
2023-05-06T03:41:28.875Z,101045.94
2023-05-06T03:43:56.835Z,101041.69
2023-05-06T03:46:25.232Z,101038.44
2023-05-06T03:48:53.624Z,101046.19
2023-05-06T03:51:22.469Z,101040.88
2023-05-06T03:53:51.813Z,101036.19
2023-05-06T03:56:23.450Z,101037.28
2023-05-06T03:58:56.487Z,101033.47
2023-05-06T04:01:26.457Z,101030.50
2023-05-06T04:03:56.496Z,101033.28
2023-05-06T04:06:27.029Z,101035.50
2023-05-06T04:08:56.987Z,101032.00
2023-05-06T04:11:29.617Z,101030.94
2023-05-06T04:13:59.817Z,101041.56
2023-05-06T04:16:29.850Z,101048.34
2023-05-06T04:18:59.839Z,101038.03
2023-05-06T04:21:30.000Z,101047.97
2023-05-06T04:23:59.989Z,101045.94
2023-05-06T04:26:30.012Z,101046.19
2023-05-06T04:29:00.020Z,101049.59
2023-05-06T04:31:30.288Z,101050.91
2023-05-06T04:34:01.211Z,101050.38
2023-05-06T04:36:31.190Z,101051.47
2023-05-06T04:39:01.219Z,101059.91
2023-05-06T04:41:31.341Z,101060.19
2023-05-06T04:44:01.662Z,101063.13
2023-05-06T04:46:31.676Z,101066.56
2023-05-06T04:49:02.013Z,101067.97
2023-05-06T04:51:32.203Z,101071.63
2023-05-06T04:54:02.297Z,101074.88
2023-05-06T04:56:33.714Z,101071.72
2023-05-06T04:59:04.043Z,101073.34
2023-05-06T05:01:34.081Z,101078.44
2023-05-06T05:04:04.168Z,101074.84
2023-05-06T05:06:33.039Z,101084.19
2023-05-06T05:09:01.012Z,101084.19
2023-05-06T05:11:29.406Z,101085.00
2023-05-06T05:13:59.565Z,101081.06
2023-05-06T05:16:29.226Z,101080.41
2023-05-06T05:18:57.725Z,101095.97
2023-05-06T05:21:26.045Z,101084.34
2023-05-06T05:23:54.450Z,101089.06
2023-05-06T05:26:22.911Z,101088.00
2023-05-06T05:28:51.231Z,101094.13
2023-05-06T05:31:19.831Z,101085.50
2023-05-06T05:33:48.207Z,101088.44
2023-05-06T05:36:16.700Z,101080.50
2023-05-06T05:38:45.659Z,101085.81
2023-05-06T05:41:14.948Z,101082.34
2023-05-06T05:43:46.794Z,101089.22
2023-05-06T05:46:17.193Z,101093.03
2023-05-06T05:48:47.192Z,101097.22
2023-05-06T05:51:17.367Z,101094.09
2023-05-06T05:53:47.362Z,101092.66
2023-05-06T05:56:17.519Z,101086.63
2023-05-06T05:58:47.650Z,101091.28
2023-05-06T06:01:18.277Z,101098.84
2023-05-06T06:03:48.475Z,101096.03
2023-05-06T06:06:18.670Z,101096.13
2023-05-06T06:08:48.678Z,101095.47
2023-05-06T06:11:18.642Z,101100.66
2023-05-06T06:13:48.669Z,101093.06
2023-05-06T06:16:18.722Z,101098.06
2023-05-06T06:18:48.976Z,101100.00
2023-05-06T06:21:19.040Z,101108.41
2023-05-06T06:23:49.055Z,101112.13
2023-05-06T06:26:19.178Z,101115.03
2023-05-06T06:28:49.192Z,101118.09
2023-05-06T06:31:19.204Z,101123.31
2023-05-06T06:33:49.405Z,101125.66
2023-05-06T06:36:19.456Z,101126.22
2023-05-06T06:38:47.794Z,101129.63
2023-05-06T06:41:16.373Z,101122.00
2023-05-06T06:43:44.747Z,101124.44
2023-05-06T06:46:13.259Z,101126.41
2023-05-06T06:48:41.635Z,101121.72
2023-05-06T06:51:10.019Z,101124.91
2023-05-06T06:53:38.480Z,101128.53
2023-05-06T06:56:12.213Z,101120.78
2023-05-06T06:58:42.410Z,101130.75
2023-05-06T07:01:12.972Z,101128.28
2023-05-06T07:03:43.187Z,101128.66
2023-05-06T07:06:13.407Z,101122.03
2023-05-06T07:08:43.420Z,101125.66
2023-05-06T07:11:14.640Z,101122.50
2023-05-06T07:13:44.685Z,101120.91
2023-05-06T07:16:14.756Z,101127.13
2023-05-06T07:18:45.414Z,101136.16
2023-05-06T07:21:15.392Z,101143.09
2023-05-06T07:23:45.538Z,101140.81
2023-05-06T07:26:15.754Z,101140.81
2023-05-06T07:28:45.782Z,101137.56
2023-05-06T07:31:16.499Z,101139.91
2023-05-06T07:33:47.976Z,101142.66
2023-05-06T07:36:18.083Z,101147.25
2023-05-06T07:38:46.392Z,101151.84
2023-05-06T07:41:14.885Z,101153.81
2023-05-06T07:43:43.295Z,101153.28
2023-05-06T07:46:12.079Z,101150.78
2023-05-06T07:48:40.198Z,101147.78
2023-05-06T07:51:08.494Z,101147.75
2023-05-06T07:53:38.330Z,101150.06
2023-05-06T07:56:05.873Z,101152.94
2023-05-06T07:58:33.808Z,101157.16
2023-05-06T08:01:03.477Z,101152.69
2023-05-06T08:03:31.816Z,101157.94
2023-05-06T08:05:59.184Z,101159.78
2023-05-06T08:08:28.200Z,101167.69
2023-05-06T08:10:58.051Z,101176.06
2023-05-06T08:13:28.374Z,101175.75
2023-05-06T08:15:56.319Z,101174.47
2023-05-06T08:18:24.185Z,101182.25
2023-05-06T08:20:52.687Z,101177.38
2023-05-06T08:23:21.091Z,101181.66
2023-05-06T08:25:49.474Z,101182.19
2023-05-06T08:28:17.938Z,101184.56
2023-05-06T08:30:48.617Z,101184.72
2023-05-06T08:33:19.647Z,101187.16
2023-05-06T08:35:50.940Z,101182.25
2023-05-06T08:38:21.072Z,101184.41
2023-05-06T08:40:54.566Z,101196.50
2023-05-06T08:43:28.840Z,101194.22
2023-05-06T08:45:59.350Z,101184.81
2023-05-06T08:48:30.141Z,101199.81
2023-05-06T08:51:04.363Z,101199.75
2023-05-06T08:53:34.658Z,101199.41
2023-05-06T08:56:08.936Z,101209.56
2023-05-06T08:58:44.297Z,101210.91
2023-05-06T09:01:16.058Z,101221.72
2023-05-06T09:03:49.019Z,101223.66
2023-05-06T09:06:19.007Z,101214.69
2023-05-06T09:08:49.104Z,101225.16
2023-05-06T09:11:28.670Z,101226.56
2023-05-06T09:14:16.000Z,101226.34
2023-05-06T09:16:50.844Z,101228.03
2023-05-06T09:19:22.898Z,101226.75
2023-05-06T09:21:53.203Z,101223.09
2023-05-06T09:24:24.764Z,101222.13
2023-05-06T09:26:57.040Z,101233.53
2023-05-06T09:29:26.334Z,101232.66
2023-05-06T09:31:55.084Z,101233.88
2023-05-06T09:34:24.856Z,101232.47
2023-05-06T09:36:53.953Z,101236.88
2023-05-06T09:39:27.118Z,101232.38
2023-05-06T09:41:55.290Z,101229.91
2023-05-06T09:44:27.032Z,101233.03
2023-05-06T09:46:56.625Z,101220.28
2023-05-06T09:49:26.840Z,101223.66
2023-05-06T09:51:57.784Z,101227.16
2023-05-06T09:54:28.908Z,101231.78
2023-05-06T09:57:01.208Z,101228.72
2023-05-06T09:59:32.477Z,101241.53
2023-05-06T10:02:04.932Z,101236.44
2023-05-06T10:04:39.892Z,101239.81
2023-05-06T10:07:12.677Z,101241.47
2023-05-06T10:09:43.050Z,101241.38
2023-05-06T10:12:16.605Z,101242.66
2023-05-06T10:14:47.362Z,101243.91
2023-05-06T10:17:19.104Z,101236.06
2023-05-06T10:19:57.291Z,101247.97
2023-05-06T10:23:04.564Z,101250.19
2023-05-06T10:25:38.148Z,101257.16
2023-05-06T10:28:22.237Z,101250.47
2023-05-06T10:31:05.190Z,101253.88
2023-05-06T10:33:35.267Z,101255.13
2023-05-06T10:36:20.589Z,101259.97
2023-05-06T10:38:56.707Z,101259.97
2023-05-06T10:41:29.421Z,101258.25
2023-05-06T10:44:00.281Z,101250.81
2023-05-06T10:46:31.177Z,101256.78
2023-05-06T10:49:08.550Z,101260.59
2023-05-06T10:51:39.352Z,101257.31
2023-05-06T10:54:24.188Z,101250.13
2023-05-06T10:56:54.259Z,101253.94
2023-05-06T10:59:26.815Z,101262.91
2023-05-06T11:02:09.739Z,101259.47
2023-05-06T11:04:40.482Z,101259.94
2023-05-06T11:07:15.569Z,101257.97
2023-05-06T11:10:01.643Z,101264.72
2023-05-06T11:12:53.759Z,101257.63
2023-05-06T11:15:39.549Z,101266.81
2023-05-06T11:18:29.498Z,101268.06
2023-05-06T11:21:03.212Z,101273.47
2023-05-06T11:23:52.298Z,101273.66
2023-05-06T11:26:20.522Z,101284.75
2023-05-06T11:28:51.663Z,101287.81
2023-05-06T11:31:22.993Z,101280.88
2023-05-06T11:33:55.299Z,101283.03
2023-05-06T11:36:24.647Z,101282.06
2023-05-06T11:38:54.665Z,101294.47
2023-05-06T11:41:24.340Z,101300.00
2023-05-06T11:43:54.147Z,101300.09
2023-05-06T11:46:25.551Z,101297.53
2023-05-06T11:48:54.641Z,101303.28
2023-05-06T11:51:26.077Z,101307.69
2023-05-06T11:54:11.079Z,101303.75
2023-05-06T11:56:53.738Z,101305.97
2023-05-06T11:59:38.894Z,101310.97
2023-05-06T12:02:13.725Z,101319.50
2023-05-06T12:04:48.420Z,101327.97
2023-05-06T12:07:17.761Z,101319.97
2023-05-06T12:09:49.748Z,101330.16
2023-05-06T12:12:24.378Z,101329.00
2023-05-06T12:14:54.523Z,101326.69
2023-05-06T12:17:24.794Z,101335.69
2023-05-06T12:19:54.717Z,101345.25
2023-05-06T12:22:27.448Z,101342.94
2023-05-06T12:24:54.961Z,101343.28
2023-05-06T12:27:35.818Z,101350.06
2023-05-06T12:30:05.337Z,101355.06
2023-05-06T12:32:32.495Z,101360.63
2023-05-06T12:35:05.987Z,101351.34
2023-05-06T12:37:36.135Z,101355.31
2023-05-06T12:40:16.968Z,101362.63
2023-05-06T12:42:55.505Z,101365.38
2023-05-06T12:45:25.863Z,101372.81
2023-05-06T12:48:02.821Z,101373.34
2023-05-06T12:50:48.005Z,101376.13
2023-05-06T12:53:33.789Z,101381.13
2023-05-06T12:56:03.301Z,101381.59
2023-05-06T12:58:30.452Z,101378.50
2023-05-06T13:01:00.059Z,101373.72
2023-05-06T13:03:30.091Z,101384.09
2023-05-06T13:05:59.923Z,101383.94
2023-05-06T13:08:29.798Z,101380.66
2023-05-06T13:11:01.790Z,101386.41
2023-05-06T13:13:31.764Z,101392.00
2023-05-06T13:16:01.786Z,101391.34
2023-05-06T13:18:30.119Z,101392.69
2023-05-06T13:21:00.382Z,101398.69
2023-05-06T13:23:29.848Z,101384.59
2023-05-06T13:26:04.923Z,101393.13
2023-05-06T13:28:36.871Z,101392.44
2023-05-06T13:31:08.453Z,101389.91
2023-05-06T13:33:37.941Z,101388.88
2023-05-06T13:36:08.294Z,101388.03
2023-05-06T13:38:37.798Z,101392.50
2023-05-06T13:41:08.107Z,101394.19
2023-05-06T13:43:38.088Z,101394.78
2023-05-06T13:46:09.452Z,101395.97
2023-05-06T13:48:39.449Z,101391.31
2023-05-06T13:51:09.235Z,101388.13
2023-05-06T13:53:39.635Z,101393.88
2023-05-06T13:56:09.770Z,101396.53
2023-05-06T13:58:39.692Z,101395.06
2023-05-06T14:01:09.642Z,101402.63
2023-05-06T14:03:39.342Z,101408.59
2023-05-06T14:06:09.563Z,101408.38
2023-05-06T14:08:39.652Z,101400.97
2023-05-06T14:11:12.223Z,101404.56
2023-05-06T14:13:42.185Z,101408.22
2023-05-06T14:16:11.994Z,101405.13
2023-05-06T14:18:41.898Z,101404.47
2023-05-06T14:21:11.668Z,101401.56
2023-05-06T14:23:41.535Z,101396.78
2023-05-06T14:26:11.264Z,101404.75
2023-05-06T14:28:41.123Z,101401.59
2023-05-06T14:31:10.935Z,101387.72
2023-05-06T14:33:40.963Z,101399.91
2023-05-06T14:36:10.887Z,101400.19
2023-05-06T14:38:39.288Z,101394.84
2023-05-06T14:41:07.826Z,101400.16
2023-05-06T14:43:37.240Z,101391.38
2023-05-06T14:46:05.159Z,101389.09
2023-05-06T14:48:33.547Z,101386.72
2023-05-06T14:51:02.138Z,101388.19
2023-05-06T14:53:30.633Z,101390.22
2023-05-06T14:55:59.014Z,101395.44
2023-05-06T14:58:27.570Z,101404.81
2023-05-06T15:00:57.079Z,101394.81
2023-05-06T15:03:24.622Z,101409.19
2023-05-06T15:05:53.230Z,101416.94
2023-05-06T15:08:22.010Z,101413.03
2023-05-06T15:10:50.884Z,101421.56
2023-05-06T15:13:19.339Z,101420.91
2023-05-06T15:15:47.636Z,101426.81
2023-05-06T15:18:16.139Z,101430.09
2023-05-06T15:20:44.468Z,101431.41
2023-05-06T15:23:12.941Z,101440.72
2023-05-06T15:25:41.762Z,101430.53
2023-05-06T15:28:10.301Z,101427.22
2023-05-06T15:30:39.356Z,101428.75
2023-05-06T15:33:07.351Z,101432.03
2023-05-06T15:35:35.984Z,101429.41
2023-05-06T15:38:04.677Z,101425.09
2023-05-06T15:40:32.810Z,101432.09
2023-05-06T15:43:01.416Z,101431.25
2023-05-06T15:45:29.788Z,101436.34
2023-05-06T15:47:58.300Z,101434.88
2023-05-06T15:50:33.539Z,101436.34
2023-05-06T15:53:04.177Z,101440.44
2023-05-06T15:55:42.382Z,101441.22
2023-05-06T15:58:14.247Z,101438.09
2023-05-06T16:00:43.354Z,101435.72
2023-05-06T16:03:12.211Z,101442.56
2023-05-06T16:05:42.740Z,101443.25
2023-05-06T16:08:12.460Z,101438.75
2023-05-06T16:10:42.374Z,101433.28
2023-05-06T16:13:12.208Z,101439.63
2023-05-06T16:15:42.234Z,101450.03
2023-05-06T16:18:12.138Z,101444.81
2023-05-06T16:20:42.275Z,101441.41
2023-05-06T16:23:13.722Z,101443.09
2023-05-06T16:25:43.680Z,101443.50
2023-05-06T16:28:13.500Z,101442.81
2023-05-06T16:30:46.457Z,101440.44
2023-05-06T16:33:16.395Z,101445.16
2023-05-06T16:35:46.530Z,101449.44
2023-05-06T16:38:16.445Z,101458.25
2023-05-06T16:40:51.289Z,101454.94
2023-05-06T16:43:21.346Z,101453.97
2023-05-06T16:45:51.126Z,101451.34
2023-05-06T16:48:21.184Z,101449.28
2023-05-06T16:50:51.944Z,101446.47
2023-05-06T16:53:21.957Z,101444.75
2023-05-06T16:55:51.683Z,101450.09
2023-05-06T16:58:21.962Z,101454.00
2023-05-06T17:00:54.218Z,101457.19
2023-05-06T17:03:24.213Z,101457.28
2023-05-06T17:05:54.618Z,101464.78
2023-05-06T17:08:26.928Z,101464.03
2023-05-06T17:10:56.402Z,101461.56
2023-05-06T17:13:24.523Z,101463.78
2023-05-06T17:15:52.921Z,101466.50
2023-05-06T17:18:21.293Z,101477.53
2023-05-06T17:20:55.864Z,101479.56
2023-05-06T17:23:27.222Z,101478.97
2023-05-06T17:25:57.424Z,101479.25
2023-05-06T17:28:27.657Z,101472.00
2023-05-06T17:30:57.108Z,101482.84
2023-05-06T17:33:26.971Z,101480.81
2023-05-06T17:35:56.785Z,101477.19
2023-05-06T17:38:26.574Z,101480.84
2023-05-06T17:40:56.476Z,101481.63
2023-05-06T17:43:26.151Z,101472.81
2023-05-06T17:45:56.128Z,101474.66
2023-05-06T17:48:26.223Z,101478.06
2023-05-06T17:51:03.185Z,101481.38
2023-05-06T17:53:34.894Z,101480.63
2023-05-06T17:56:04.538Z,101481.47
2023-05-06T17:58:34.480Z,101484.53
2023-05-06T18:01:04.444Z,101484.22
2023-05-06T18:03:34.263Z,101489.81
2023-05-06T18:06:04.324Z,101490.03
2023-05-06T18:08:34.258Z,101494.31
2023-05-06T18:11:04.050Z,101492.97
2023-05-06T18:13:36.814Z,101490.44
2023-05-06T18:16:07.063Z,101495.16
2023-05-06T18:18:36.922Z,101491.84
2023-05-06T18:21:06.612Z,101495.28
2023-05-06T18:23:36.341Z,101498.56
2023-05-06T18:26:06.389Z,101499.56
2023-05-06T18:28:38.084Z,101506.13
2023-05-06T18:31:08.257Z,101519.75
2023-05-06T18:33:37.823Z,101505.41
2023-05-06T18:36:10.879Z,101520.91
2023-05-06T18:38:40.267Z,101516.94
2023-05-06T18:41:09.188Z,101527.78
2023-05-06T18:43:37.108Z,101523.81
2023-05-06T18:46:05.697Z,101528.78
2023-05-06T18:48:34.169Z,101527.78
2023-05-06T18:51:17.518Z,101528.25
2023-05-06T18:53:47.893Z,101520.34
2023-05-06T18:56:17.878Z,101526.31
2023-05-06T18:58:47.590Z,101523.59
2023-05-06T19:01:17.495Z,101522.41
2023-05-06T19:03:47.472Z,101536.56
2023-05-06T19:06:15.870Z,101532.44
2023-05-06T19:08:44.296Z,101538.56
2023-05-06T19:11:21.334Z,101542.63
2023-05-06T19:13:51.086Z,101541.06
2023-05-06T19:16:19.592Z,101541.88
2023-05-06T19:18:49.838Z,101552.69
2023-05-06T19:21:19.984Z,101551.47
2023-05-06T19:23:50.260Z,101549.16
2023-05-06T19:26:20.275Z,101552.31
2023-05-06T19:28:50.035Z,101544.91
2023-05-06T19:31:19.889Z,101543.56
2023-05-06T19:33:50.090Z,101544.31
2023-05-06T19:36:20.003Z,101551.84
2023-05-06T19:38:49.661Z,101549.44
2023-05-06T19:41:19.414Z,101551.25
2023-05-06T19:43:49.122Z,101546.06
2023-05-06T19:46:18.930Z,101555.03
2023-05-06T19:48:48.652Z,101555.88
2023-05-06T19:51:18.366Z,101554.47
2023-05-06T19:53:49.171Z,101556.50
2023-05-06T19:56:20.340Z,101554.34
2023-05-06T19:58:53.549Z,101544.38
2023-05-06T20:01:24.016Z,101541.63
2023-05-06T20:03:55.244Z,101554.63
2023-05-06T20:06:25.259Z,101547.06
2023-05-06T20:08:55.068Z,101546.25
2023-05-06T20:11:23.502Z,101547.69
2023-05-06T20:13:52.189Z,101552.97
2023-05-06T20:16:20.614Z,101559.06
2023-05-06T20:18:49.587Z,101557.56
2023-05-06T20:21:17.372Z,101559.53
2023-05-06T20:23:45.766Z,101564.25
2023-05-06T20:26:14.266Z,101562.03
2023-05-06T20:28:42.657Z,101559.25
2023-05-06T20:31:11.409Z,101564.06
2023-05-06T20:33:39.479Z,101558.31
2023-05-06T20:36:07.973Z,101562.75
2023-05-06T20:38:36.658Z,101568.56
2023-05-06T20:41:04.782Z,101570.19
2023-05-06T20:43:35.390Z,101567.41
2023-05-06T20:46:05.640Z,101558.72
2023-05-06T20:48:33.017Z,101565.50
2023-05-06T20:51:01.476Z,101567.19
2023-05-06T20:53:29.908Z,101570.97
2023-05-06T20:55:58.314Z,101569.69
2023-05-06T20:58:28.680Z,101570.25
2023-05-06T21:00:58.897Z,101566.09
2023-05-06T21:03:30.581Z,101571.19
2023-05-06T21:06:00.698Z,101574.63
2023-05-06T21:08:30.447Z,101578.25
2023-05-06T21:11:00.343Z,101578.47
2023-05-06T21:13:30.114Z,101579.09
2023-05-06T21:16:00.061Z,101580.97
2023-05-06T21:18:30.263Z,101580.91
2023-05-06T21:21:00.399Z,101579.44
2023-05-06T21:23:30.414Z,101585.00
2023-05-06T21:26:00.187Z,101582.31
2023-05-06T21:28:30.185Z,101572.38
2023-05-06T21:31:00.022Z,101580.97
2023-05-06T21:33:30.121Z,101584.03
2023-05-06T21:36:00.241Z,101583.22
2023-05-06T21:38:30.312Z,101574.41
2023-05-06T21:41:00.223Z,101571.03
2023-05-06T21:43:31.322Z,101577.78
2023-05-06T21:46:04.361Z,101576.19
2023-05-06T21:48:34.613Z,101581.22
2023-05-06T21:51:04.524Z,101581.00
2023-05-06T21:53:34.550Z,101587.31
2023-05-06T21:56:04.745Z,101576.78
2023-05-06T21:58:34.731Z,101581.75
2023-05-06T22:01:04.106Z,101585.66
2023-05-06T22:03:34.092Z,101582.03
2023-05-06T22:06:05.541Z,101582.03
2023-05-06T22:08:35.139Z,101580.41
2023-05-06T22:11:05.068Z,101587.03
2023-05-06T22:13:35.300Z,101585.88
2023-05-06T22:16:05.444Z,101582.63
2023-05-06T22:18:36.146Z,101598.66
2023-05-06T22:21:06.212Z,101584.84
2023-05-06T22:23:36.160Z,101588.97
2023-05-06T22:26:06.251Z,101591.38
2023-05-06T22:28:36.057Z,101591.69
2023-05-06T22:31:06.056Z,101590.38
2023-05-06T22:33:36.093Z,101601.94
2023-05-06T22:36:06.188Z,101600.47
2023-05-06T22:38:35.998Z,101595.16
2023-05-06T22:41:05.761Z,101600.75
2023-05-06T22:43:35.548Z,101596.59
2023-05-06T22:46:05.399Z,101599.66
2023-05-06T22:48:33.795Z,101596.72
2023-05-06T22:51:03.489Z,101597.53
2023-05-06T22:53:30.742Z,101596.19
2023-05-06T22:55:59.073Z,101602.53
2023-05-06T22:58:27.573Z,101600.03
2023-05-06T23:00:56.674Z,101605.81
2023-05-06T23:03:24.519Z,101604.44
2023-05-06T23:05:52.851Z,101598.56
2023-05-06T23:08:21.411Z,101610.69
2023-05-06T23:10:49.974Z,101614.59
2023-05-06T23:13:18.638Z,101606.66
2023-05-06T23:15:47.094Z,101606.06
2023-05-06T23:18:15.833Z,101608.59
2023-05-06T23:20:44.635Z,101602.69
2023-05-06T23:23:12.623Z,101608.47
2023-05-06T23:25:41.007Z,101603.50
2023-05-06T23:28:09.374Z,101598.84
2023-05-06T23:30:37.810Z,101598.84
2023-05-06T23:33:07.864Z,101602.69
2023-05-06T23:35:38.191Z,101592.22
2023-05-06T23:38:06.646Z,101601.09
2023-05-06T23:40:34.986Z,101610.81
2023-05-06T23:43:03.365Z,101607.72
2023-05-06T23:45:31.919Z,101600.03
2023-05-06T23:48:00.771Z,101613.84
2023-05-06T23:50:29.336Z,101609.31
2023-05-06T23:52:57.686Z,101611.31
2023-05-06T23:55:26.880Z,101603.56
2023-05-06T23:57:55.031Z,101611.56
